Time;durP1;ratioP1;P1;durP2;ratioP2;P2;SDS_P1;SDS_P2;PMS_P1;PMS_P2;Temp;Humidity;BMP_temperature;BMP_pressure;BME280_temperature;BME280_humidity;BME280_pressure;Samples;Min_cycle;Max_cycle;Signal;HPM_P1;HPM_P2
2023/04/19 00:02:18;;;;;;;1999.90;999.90;;;30.00;91.60;;;;;;5045138;28;20148;-70
2023/04/19 00:04:46;;;;;;;1999.90;999.90;;;30.10;91.30;;;;;;5044582;28;20033;-69
2023/04/19 00:07:13;;;;;;;1999.90;999.90;;;30.00;92.00;;;;;;5043709;28;20600;-68
2023/04/19 00:09:41;;;;;;;1999.90;999.90;;;30.20;91.00;;;;;;5047853;28;20510;-67
2023/04/19 00:12:08;;;;;;;1999.90;999.90;;;30.30;90.80;;;;;;5046609;28;20037;-69
2023/04/19 00:14:35;;;;;;;1999.90;999.90;;;30.50;90.20;;;;;;5040405;28;20037;-68
2023/04/19 00:17:03;;;;;;;1999.90;999.90;;;30.60;90.20;;;;;;5046262;28;20131;-68
2023/04/19 00:19:30;;;;;;;1999.90;999.90;;;30.70;90.20;;;;;;5042010;28;20025;-69
2023/04/19 00:21:57;;;;;;;1999.90;999.90;;;30.70;88.60;;;;;;5049501;28;20557;-69
2023/04/19 00:24:25;;;;;;;1999.90;999.90;;;30.60;90.00;;;;;;5039430;28;20112;-69
2023/04/19 00:26:52;;;;;;;1999.90;999.90;;;30.60;90.10;;;;;;5045588;28;20029;-69
2023/04/19 00:29:20;;;;;;;1999.90;999.90;;;31.10;88.50;;;;;;5044174;28;20066;-69
2023/04/19 00:31:47;;;;;;;1999.90;999.90;;;31.20;88.70;;;;;;5050400;28;21012;-70
2023/04/19 00:34:14;;;;;;;1999.90;999.90;;;31.20;88.70;;;;;;5044141;28;20044;-70
2023/04/19 00:36:42;;;;;;;1999.90;999.90;;;31.50;87.80;;;;;;5052492;28;20020;-69
2023/04/19 00:39:09;;;;;;;1999.90;999.90;;;31.30;88.50;;;;;;5040616;28;20036;-69
2023/04/19 00:41:36;;;;;;;1999.90;999.90;;;31.20;88.90;;;;;;5061433;28;20491;-69
2023/04/19 00:44:04;;;;;;;1999.90;999.90;;;31.60;87.30;;;;;;5041824;28;20025;-69
2023/04/19 00:46:31;;;;;;;1999.90;999.90;;;31.70;87.10;;;;;;5048545;28;20037;-69
2023/04/19 00:48:59;;;;;;;1999.90;999.90;;;31.60;85.90;;;;;;5046080;28;20025;-69
2023/04/19 00:51:27;;;;;;;1999.90;999.90;;;31.50;85.10;;;;;;5048179;28;20060;-69
2023/04/19 00:53:55;;;;;;;1999.90;999.90;;;31.30;85.60;;;;;;5045137;28;20099;-69
2023/04/19 00:56:24;;;;;;;1999.90;999.90;;;31.30;85.60;;;;;;5041294;28;20090;-69
2023/04/19 00:58:52;;;;;;;1999.90;999.90;;;31.10;86.10;;;;;;5046849;28;20029;-69
2023/04/19 01:01:20;;;;;;;1999.90;999.90;;;30.90;85.90;;;;;;5044756;28;20117;-71
2023/04/19 01:03:48;;;;;;;1999.90;999.90;;;30.50;85.90;;;;;;5051738;28;20071;-69
2023/04/19 01:06:15;;;;;;;1999.90;999.90;;;30.50;87.20;;;;;;5045668;28;20048;-69
2023/04/19 01:08:43;;;;;;;1999.90;999.90;;;30.80;85.10;;;;;;5054056;28;20064;-69
2023/04/19 01:11:10;;;;;;;1999.90;999.90;;;30.80;85.20;;;;;;5053823;28;20112;-68
2023/04/19 01:13:37;;;;;;;1999.90;999.90;;;30.80;84.60;;;;;;5056811;28;20049;-68
2023/04/19 01:16:06;;;;;;;1999.90;999.90;;;30.80;85.90;;;;;;5063529;28;20059;-69
2023/04/19 01:18:36;;;;;;;1999.90;999.90;;;31.00;86.70;;;;;;5049258;28;20074;-69
2023/04/19 01:21:04;;;;;;;1999.90;999.90;;;31.10;86.60;;;;;;5060669;28;20108;-69
2023/04/19 01:23:32;;;;;;;1999.90;999.90;;;30.90;85.20;;;;;;5049849;28;20024;-69
2023/04/19 01:26:00;;;;;;;1999.90;999.90;;;29.90;85.40;;;;;;5054258;28;20357;-69
2023/04/19 01:28:28;;;;;;;1999.90;999.90;;;29.20;86.30;;;;;;5051512;28;20086;-70
2023/04/19 01:30:55;;;;;;;1999.90;999.90;;;28.80;86.30;;;;;;5058743;28;20100;-69
2023/04/19 01:33:23;;;;;;;1999.90;999.90;;;28.50;88.00;;;;;;5056557;28;20029;-70
2023/04/19 01:35:50;;;;;;;1999.90;999.90;;;28.40;88.00;;;;;;5053090;28;20029;-70
2023/04/19 01:38:17;;;;;;;1999.90;999.90;;;28.70;86.80;;;;;;5051782;28;20428;-69
2023/04/19 01:40:45;;;;;;;1999.90;999.90;;;28.80;86.10;;;;;;5061743;28;20048;-73
2023/04/19 01:43:17;;;;;;;1999.90;999.90;;;29.30;86.70;;;;;;5055041;28;20124;-70
2023/04/19 01:45:45;;;;;;;1999.90;999.90;;;29.40;85.90;;;;;;5055813;28;20029;-70
2023/04/19 01:48:12;;;;;;;1999.90;999.90;;;29.40;85.50;;;;;;5050253;28;20033;-71
2023/04/19 01:50:39;;;;;;;1999.90;999.90;;;29.70;86.00;;;;;;5059290;28;20454;-69
2023/04/19 01:53:07;;;;;;;1999.90;999.90;;;29.30;84.60;;;;;;5049752;28;20187;-67
2023/04/19 01:55:34;;;;;;;1999.90;999.90;;;29.70;84.70;;;;;;5054866;28;20036;-67
2023/04/19 01:58:01;;;;;;;1999.90;999.90;;;30.00;84.60;;;;;;5051849;28;20028;-69
2023/04/19 02:00:29;;;;;;;1999.90;999.90;;;30.00;84.60;;;;;;5058123;28;20419;-68
2023/04/19 02:02:56;;;;;;;1999.90;999.90;;;30.30;84.60;;;;;;5052890;28;20178;-69
2023/04/19 02:05:23;;;;;;;1999.90;999.90;;;30.00;83.70;;;;;;5042255;28;20043;-68
2023/04/19 02:07:51;;;;;;;1999.90;999.90;;;29.70;83.50;;;;;;5042783;28;20045;-68
2023/04/19 02:10:18;;;;;;;1999.90;999.90;;;29.30;83.70;;;;;;5050103;28;20136;-67
2023/04/19 02:12:45;;;;;;;1999.90;999.90;;;29.10;84.60;;;;;;5048269;28;20033;-67
2023/04/19 02:15:13;;;;;;;1999.90;999.90;;;29.00;85.10;;;;;;5060636;28;20040;-68
2023/04/19 02:17:40;;;;;;;1999.90;999.90;;;29.10;84.90;;;;;;5051262;28;20019;-68
2023/04/19 02:20:08;;;;;;;1999.90;999.90;;;29.30;85.10;;;;;;5052673;28;20028;-68
2023/04/19 02:22:35;;;;;;;1999.90;999.90;;;29.40;84.70;;;;;;5048388;28;20057;-68
2023/04/19 02:25:03;;;;;;;1999.90;999.90;;;29.40;85.80;;;;;;5046235;28;20029;-67
2023/04/19 02:27:30;;;;;;;1999.90;999.90;;;29.30;83.80;;;;;;5047405;28;20078;-67
2023/04/19 02:29:58;;;;;;;1999.90;999.90;;;29.10;85.00;;;;;;5047535;28;20048;-67
2023/04/19 02:32:25;;;;;;;1999.90;999.90;;;28.80;84.70;;;;;;5047261;28;20024;-68
2023/04/19 02:34:52;;;;;;;1999.90;999.90;;;28.70;85.00;;;;;;5043775;28;20502;-68
2023/04/19 02:37:20;;;;;;;1999.90;999.90;;;29.00;85.50;;;;;;5051377;28;20025;-68
2023/04/19 02:39:47;;;;;;;1999.90;999.90;;;29.20;84.90;;;;;;5048429;28;20522;-69
2023/04/19 02:42:15;;;;;;;1999.90;999.90;;;29.00;85.10;;;;;;5061357;28;20545;-70
2023/04/19 02:44:42;;;;;;;1999.90;999.90;;;29.20;84.30;;;;;;5048978;28;20040;-68
2023/04/19 02:47:09;;;;;;;1999.90;999.90;;;29.50;85.90;;;;;;5050838;28;20029;-69
2023/04/19 02:49:40;;;;;;;1999.90;999.90;;;29.70;83.80;;;;;;5046008;28;20116;-68
2023/04/19 02:52:07;;;;;;;1999.90;999.90;;;29.80;83.90;;;;;;5041014;28;20033;-68
2023/04/19 02:54:35;;;;;;;1999.90;999.90;;;29.70;82.40;;;;;;5044292;28;20033;-68
2023/04/19 02:57:02;;;;;;;1999.90;999.90;;;29.70;83.70;;;;;;5051978;28;20476;-69
2023/04/19 02:59:30;;;;;;;1999.90;999.90;;;29.40;83.70;;;;;;5045419;28;20032;-68
2023/04/19 03:01:57;;;;;;;1999.90;999.90;;;29.50;82.80;;;;;;5044198;28;20451;-70
2023/04/19 03:04:24;;;;;;;1999.90;999.90;;;29.40;82.40;;;;;;5043377;28;20059;-70
2023/04/19 03:06:52;;;;;;;1999.90;999.90;;;29.40;83.30;;;;;;5048899;28;20392;-70
2023/04/19 03:09:19;;;;;;;1999.90;999.90;;;29.50;82.20;;;;;;5042843;28;20567;-70
2023/04/19 03:11:47;;;;;;;1999.90;999.90;;;29.70;82.60;;;;;;5043093;28;20067;-69
2023/04/19 03:14:14;;;;;;;1999.90;999.90;;;29.70;82.30;;;;;;5044267;28;20041;-69
2023/04/19 03:16:41;;;;;;;1999.90;999.90;;;29.70;81.70;;;;;;5047731;28;20055;-69
2023/04/19 03:19:09;;;;;;;1999.90;999.90;;;29.70;81.50;;;;;;5045617;28;20066;-69
2023/04/19 03:21:36;;;;;;;1999.90;999.90;;;29.70;82.00;;;;;;5051597;28;20029;-69
2023/04/19 03:24:05;;;;;;;1999.90;999.90;;;29.70;80.70;;;;;;5048986;28;20029;-69
2023/04/19 03:26:32;;;;;;;1999.90;999.90;;;29.30;82.20;;;;;;5055639;28;20020;-69
2023/04/19 03:29:00;;;;;;;1999.90;999.90;;;29.50;84.40;;;;;;5046348;28;20029;-69
2023/04/19 03:31:27;;;;;;;1999.90;999.90;;;29.70;82.00;;;;;;5045077;28;20029;-70
2023/04/19 03:33:54;;;;;;;1999.90;999.90;;;29.70;82.10;;;;;;5045161;28;20044;-69
2023/04/19 03:36:22;;;;;;;1999.90;999.90;;;29.70;82.00;;;;;;5048692;28;20025;-69
2023/04/19 03:38:49;;;;;;;1999.90;999.90;;;29.60;83.20;;;;;;5047386;28;20036;-69
2023/04/19 03:41:24;;;;;;;1999.90;999.90;;;29.30;84.50;;;;;;5047258;28;20074;-69
2023/04/19 03:43:51;;;;;;;;;;;28.70;84.70;;;;;;5039088;28;20052;-68
2023/04/19 03:46:19;;;;;;;1999.90;999.90;;;28.30;85.70;;;;;;5048484;28;19916;-67
2023/04/19 03:48:46;;;;;;;1999.90;999.90;;;28.20;84.60;;;;;;5044769;28;20115;-68
2023/04/19 03:51:14;;;;;;;1999.90;999.90;;;28.20;85.30;;;;;;5042593;28;20566;-69
2023/04/19 03:53:42;;;;;;;1999.90;999.90;;;28.30;84.60;;;;;;5046181;28;20040;-69
2023/04/19 03:56:09;;;;;;;1999.90;999.90;;;28.50;84.40;;;;;;5046568;28;20032;-68
2023/04/19 03:58:37;;;;;;;1999.90;999.90;;;28.40;84.90;;;;;;5040161;28;20029;-68
2023/04/19 04:01:07;;;;;;;1999.90;999.90;;;28.60;84.90;;;;;;5041255;28;20052;-67
2023/04/19 04:03:35;;;;;;;1999.90;999.90;;;28.90;84.70;;;;;;5037547;28;20025;-69
2023/04/19 04:06:02;;;;;;;1999.90;999.90;;;29.30;83.70;;;;;;5039870;28;20029;-69
2023/04/19 04:08:29;;;;;;;1999.90;999.90;;;29.40;82.80;;;;;;5040200;28;20045;-68
2023/04/19 04:10:56;;;;;;;1999.90;999.90;;;29.50;83.00;;;;;;5038683;28;20037;-68
2023/04/19 04:13:24;;;;;;;1999.90;999.90;;;29.60;83.00;;;;;;5032798;28;20932;-69
2023/04/19 04:15:51;;;;;;;1999.90;999.90;;;29.70;83.40;;;;;;5048124;28;20423;-68
2023/04/19 04:18:18;;;;;;;1999.90;999.90;;;29.70;83.00;;;;;;5042151;28;20020;-68
2023/04/19 04:20:46;;;;;;;1999.90;999.90;;;29.60;82.90;;;;;;5045606;28;20143;-68
2023/04/19 04:23:13;;;;;;;1999.90;999.90;;;29.50;82.30;;;;;;5047243;28;20523;-69
2023/04/19 04:25:41;;;;;;;1999.90;999.90;;;29.10;83.20;;;;;;5048366;28;20029;-69
2023/04/19 04:28:09;;;;;;;1999.90;999.90;;;28.90;83.60;;;;;;5041383;28;20029;-68
2023/04/19 04:30:36;;;;;;;1999.90;999.90;;;28.70;83.90;;;;;;5041063;28;20033;-67
2023/04/19 04:33:03;;;;;;;1999.90;999.90;;;28.50;83.70;;;;;;5041926;28;20483;-69
2023/04/19 04:35:31;;;;;;;1999.90;999.90;;;28.30;84.90;;;;;;5051026;28;20037;-69
2023/04/19 04:37:58;;;;;;;1999.90;999.90;;;28.20;85.20;;;;;;5042440;28;20036;-67
2023/04/19 04:40:27;;;;;;;1999.90;999.90;;;28.10;84.80;;;;;;5043849;28;20487;-70
2023/04/19 04:42:54;;;;;;;1999.90;999.90;;;28.20;85.10;;;;;;5038015;28;20090;-69
2023/04/19 04:45:21;;;;;;;1999.90;999.90;;;28.30;85.00;;;;;;5044806;28;20025;-67
2023/04/19 04:47:50;;;;;;;1999.90;999.90;;;28.40;85.30;;;;;;5041933;28;20043;-69
2023/04/19 04:50:17;;;;;;;1999.90;999.90;;;28.40;84.40;;;;;;5044441;28;20017;-68
2023/04/19 04:52:44;;;;;;;1999.90;999.90;;;28.20;84.70;;;;;;5043422;28;20484;-69
2023/04/19 04:55:12;;;;;;;1999.90;999.90;;;28.20;85.50;;;;;;5040336;28;20142;-69
2023/04/19 04:57:39;;;;;;;1999.90;999.90;;;28.10;85.20;;;;;;5049855;28;20036;-69
2023/04/19 05:00:08;;;;;;;1999.90;999.90;;;28.00;85.40;;;;;;5056796;28;20033;-69
2023/04/19 05:02:35;;;;;;;1999.90;999.90;;;28.00;85.10;;;;;;5046754;28;20029;-68
2023/04/19 05:05:02;;;;;;;1999.90;999.90;;;28.00;85.50;;;;;;5045974;28;20029;-70
2023/04/19 05:07:29;;;;;;;1999.90;999.90;;;27.90;85.70;;;;;;5041952;28;20025;-68
2023/04/19 05:09:57;;;;;;;1999.90;999.90;;;27.80;84.60;;;;;;5049337;28;20055;-69
2023/04/19 05:12:24;;;;;;;1999.90;999.90;;;27.80;85.40;;;;;;5054981;28;20028;-69
2023/04/19 05:14:52;;;;;;;1999.90;999.90;;;27.70;84.70;;;;;;5046133;28;20091;-68
2023/04/19 05:17:19;;;;;;;1999.90;999.90;;;27.50;85.20;;;;;;5052804;28;20116;-68
2023/04/19 05:19:47;;;;;;;1999.90;999.90;;;27.50;85.60;;;;;;5048789;28;20048;-71
2023/04/19 05:22:14;;;;;;;1999.90;999.90;;;27.40;85.80;;;;;;5045509;28;20056;-69
2023/04/19 05:24:41;;;;;;;1999.90;999.90;;;27.40;85.80;;;;;;5043426;28;20029;-69
2023/04/19 05:27:10;;;;;;;1999.90;999.90;;;27.40;86.60;;;;;;5056110;28;20090;-68
2023/04/19 05:29:37;;;;;;;1999.90;999.90;;;27.50;87.00;;;;;;5052225;28;20048;-71
2023/04/19 05:32:05;;;;;;;1999.90;999.90;;;27.60;87.50;;;;;;5037779;28;20036;-69
2023/04/19 05:34:32;;;;;;;1999.90;999.90;;;27.70;87.50;;;;;;5045629;28;20071;-70
2023/04/19 05:37:00;;;;;;;1999.90;999.90;;;27.80;86.30;;;;;;5033160;28;20032;-69
2023/04/19 05:39:27;;;;;;;1999.90;999.90;;;27.90;85.50;;;;;;5044595;28;20040;-69
2023/04/19 05:41:55;;;;;;;1999.90;999.90;;;27.80;85.70;;;;;;5049460;28;20033;-69
2023/04/19 05:44:22;;;;;;;1999.90;999.90;;;27.80;85.30;;;;;;5048139;28;20033;-69
2023/04/19 05:46:50;;;;;;;1999.90;999.90;;;27.70;85.10;;;;;;5054004;28;20483;-70
2023/04/19 05:49:18;;;;;;;1999.90;999.90;;;27.60;85.80;;;;;;5040485;28;20079;-70
2023/04/19 05:51:45;;;;;;;1999.90;999.90;;;27.50;86.20;;;;;;5045549;28;20085;-69
2023/04/19 05:54:13;;;;;;;1999.90;999.90;;;27.50;86.70;;;;;;5046765;28;20040;-70
2023/04/19 05:56:40;;;;;;;1999.90;999.90;;;27.40;85.80;;;;;;5046982;28;20085;-70
2023/04/19 05:59:07;;;;;;;1999.90;999.90;;;27.30;86.10;;;;;;5051727;28;20044;-70
2023/04/19 06:01:35;;;;;;;1999.90;999.90;;;27.20;85.70;;;;;;5053340;28;20172;-68
2023/04/19 06:04:02;;;;;;;1999.90;999.90;;;27.10;87.00;;;;;;5054525;28;20104;-70
2023/04/19 06:06:29;;;;;;;1999.90;999.90;;;27.00;86.40;;;;;;5048718;28;20049;-70
2023/04/19 06:08:56;;;;;;;1999.90;999.90;;;26.80;86.80;;;;;;5047742;28;20041;-69
2023/04/19 06:11:24;;;;;;;1999.90;999.90;;;26.80;87.00;;;;;;5051010;28;20032;-69
2023/04/19 06:13:51;;;;;;;1999.90;999.90;;;26.70;86.90;;;;;;5041406;28;20029;-69
2023/04/19 06:16:19;;;;;;;1999.90;999.90;;;26.70;87.60;;;;;;5052217;28;20025;-69
2023/04/19 06:18:46;;;;;;;1999.90;999.90;;;26.70;87.70;;;;;;5038956;28;20028;-69
2023/04/19 06:21:14;;;;;;;1999.90;999.90;;;26.70;87.10;;;;;;5032553;28;20021;-68
2023/04/19 06:23:41;;;;;;;1999.90;999.90;;;26.70;88.00;;;;;;5037125;28;20108;-69
2023/04/19 06:26:11;;;;;;;1999.90;999.90;;;26.70;88.20;;;;;;5043519;28;20067;-68
2023/04/19 06:28:39;;;;;;;1999.90;999.90;;;26.60;86.80;;;;;;5045234;28;20047;-69
2023/04/19 06:31:06;;;;;;;1999.90;999.90;;;26.50;87.30;;;;;;5048876;28;20036;-68
2023/04/19 06:33:34;;;;;;;1999.90;999.90;;;26.40;88.00;;;;;;5044696;28;20405;-68
2023/04/19 06:36:01;;;;;;;1999.90;999.90;;;26.30;88.20;;;;;;5035715;28;20483;-68
2023/04/19 06:38:29;;;;;;;1999.90;999.90;;;26.20;88.30;;;;;;5028928;28;20427;-68
2023/04/19 06:40:56;;;;;;;1999.90;999.90;;;26.10;87.60;;;;;;5043232;28;20025;-68
2023/04/19 06:43:23;;;;;;;1999.90;999.90;;;25.90;88.50;;;;;;5047447;28;20099;-68
2023/04/19 06:45:58;;;;;;;1999.90;999.90;;;25.80;89.10;;;;;;5047606;28;20048;-68
2023/04/19 06:48:26;;;;;;;1999.90;999.90;;;25.70;89.00;;;;;;5053617;28;20123;-68
2023/04/19 06:50:54;;;;;;;1999.90;999.90;;;25.50;89.60;;;;;;5055968;28;20028;-67
2023/04/19 06:53:22;;;;;;;1999.90;999.90;;;25.50;89.90;;;;;;5049137;28;20107;-68
2023/04/19 06:56:03;;;;;;;1999.90;999.90;;;25.30;90.00;;;;;;5049025;28;20534;-68
2023/04/19 06:58:31;;;;;;;1999.90;999.90;;;25.20;90.20;;;;;;5045089;28;20036;-68
2023/04/19 07:01:00;;;;;;;1999.90;999.90;;;25.10;90.70;;;;;;5047546;28;20040;-67
2023/04/19 07:03:28;;;;;;;1999.90;999.90;;;25.00;90.90;;;;;;5038556;28;20057;-69
2023/04/19 07:05:56;;;;;;;1999.90;999.90;;;24.90;91.20;;;;;;5046859;28;20480;-68
2023/04/19 07:08:24;;;;;;;1999.90;999.90;;;24.70;91.40;;;;;;5043797;28;20056;-68
2023/04/19 07:10:52;;;;;;;1999.90;999.90;;;24.60;91.50;;;;;;5043528;28;20040;-69
2023/04/19 07:13:19;;;;;;;1999.90;999.90;;;24.50;91.80;;;;;;5044438;28;20044;-68
2023/04/19 07:15:50;;;;;;;1999.90;999.90;;;24.30;91.90;;;;;;5049309;28;20041;-67
2023/04/19 07:18:17;;;;;;;1999.90;999.90;;;24.20;92.10;;;;;;5041914;28;20040;-69
2023/04/19 07:20:47;;;;;;;1999.90;999.90;;;24.10;92.30;;;;;;5035284;28;20018;-67
2023/04/19 07:23:15;;;;;;;1999.90;999.90;;;23.90;92.50;;;;;;5036723;28;20086;-70
2023/04/19 07:25:42;;;;;;;1999.90;999.90;;;23.80;92.70;;;;;;5047582;28;20061;-67
2023/04/19 07:28:09;;;;;;;1999.90;999.90;;;23.70;92.90;;;;;;5049958;28;20028;-69
2023/04/19 07:30:37;;;;;;;1999.90;999.90;;;23.70;93.10;;;;;;5059323;28;20059;-69
2023/04/19 07:33:07;;;;;;;1999.90;999.90;;;23.60;93.20;;;;;;5048602;28;20467;-69
2023/04/19 07:35:35;;;;;;;1999.90;999.90;;;23.50;93.40;;;;;;5040490;28;20041;-69
2023/04/19 07:38:02;;;;;;;1999.90;999.90;;;23.40;93.60;;;;;;5043763;28;20449;-69
2023/04/19 07:40:29;;;;;;;1999.90;999.90;;;23.30;93.70;;;;;;5055382;28;20471;-70
2023/04/19 07:42:57;;;;;;;1999.90;999.90;;;23.10;94.00;;;;;;5041840;28;20040;-70
2023/04/19 07:45:24;;;;;;;1999.90;999.90;;;23.00;94.10;;;;;;5053249;28;20118;-70
2023/04/19 07:47:51;;;;;;;1999.90;999.90;;;22.90;94.30;;;;;;5045871;28;20033;-69
2023/04/19 07:50:19;;;;;;;1999.90;999.90;;;22.80;94.70;;;;;;5045576;28;20021;-71
2023/04/19 07:52:46;;;;;;;1999.90;999.90;;;22.70;94.70;;;;;;5038715;28;20029;-71
2023/04/19 07:55:14;;;;;;;1999.90;999.90;;;22.60;94.90;;;;;;5055851;28;20087;-70
2023/04/19 07:57:45;;;;;;;1999.90;999.90;;;22.50;95.20;;;;;;5048438;28;20025;-69
2023/04/19 08:00:14;;;;;;;1999.90;999.90;;;22.40;95.50;;;;;;5051415;28;20033;-69
2023/04/19 08:02:45;;;;;;;1999.90;999.90;;;22.40;96.00;;;;;;5052313;28;20021;-69
2023/04/19 08:05:15;;;;;;;1999.90;999.90;;;22.40;96.10;;;;;;5083876;28;20479;-69
2023/04/19 08:07:43;;;;;;;1999.90;999.90;;;22.30;96.20;;;;;;5053856;28;20135;-70
2023/04/19 08:10:11;;;;;;;1999.90;999.90;;;22.20;96.60;;;;;;5050648;28;20059;-70
2023/04/19 08:12:39;;;;;;;1999.90;999.90;;;22.10;96.90;;;;;;5046923;28;20032;-69
2023/04/19 08:15:08;;;;;;;1999.90;999.90;;;22.00;96.90;;;;;;5041263;28;20083;-71
2023/04/19 08:17:35;;;;;;;1999.90;999.90;;;22.00;97.20;;;;;;5044862;28;20380;-69
2023/04/19 08:20:05;;;;;;;1999.90;999.90;;;21.90;97.40;;;;;;5054895;28;20033;-69
2023/04/19 08:22:32;;;;;;;1999.90;999.90;;;21.90;97.80;;;;;;5047801;28;20033;-69
2023/04/19 08:25:01;;;;;;;1999.90;999.90;;;21.80;98.20;;;;;;5051032;28;20029;-69
2023/04/19 08:27:28;;;;;;;1999.90;999.90;;;21.80;98.50;;;;;;5045526;28;20029;-69
2023/04/19 08:29:56;;;;;;;1999.90;999.90;;;21.80;98.80;;;;;;5049324;28;20037;-68
2023/04/19 08:32:23;;;;;;;1999.90;999.90;;;21.80;99.00;;;;;;5044045;28;20041;-69
2023/04/19 08:34:50;;;;;;;1999.90;999.90;;;21.80;99.40;;;;;;5052392;28;20498;-69
2023/04/19 08:37:18;;;;;;;1999.90;999.90;;;21.80;99.60;;;;;;5048897;28;20055;-71
2023/04/19 08:39:45;;;;;;;1999.90;999.90;;;21.70;99.90;;;;;;5053345;28;20032;-69
2023/04/19 08:42:12;;;;;;;1999.90;999.90;;;21.60;99.90;;;;;;5047297;28;20032;-70
2023/04/19 08:44:40;;;;;;;1999.90;999.90;;;21.60;99.90;;;;;;5043615;28;20036;-69
2023/04/19 08:47:09;;;;;;;1999.90;999.90;;;21.50;99.90;;;;;;5050391;28;20137;-69
2023/04/19 08:49:38;;;;;;;1999.90;999.90;;;21.50;99.90;;;;;;5049927;28;20095;-69
2023/04/19 08:52:08;;;;;;;1999.90;999.90;;;21.50;99.90;;;;;;5054431;28;20052;-69
2023/04/19 08:54:36;;;;;;;1999.90;999.90;;;21.40;99.90;;;;;;5049619;28;20051;-69
2023/04/19 08:57:04;;;;;;;1999.90;999.90;;;21.30;99.90;;;;;;5063162;28;20530;-70
2023/04/19 08:59:32;;;;;;;1999.90;999.90;;;21.30;99.90;;;;;;5046951;28;20036;-70
2023/04/19 09:02:01;;;;;;;1999.90;999.90;;;21.20;99.90;;;;;;5049534;28;20028;-69
2023/04/19 09:04:29;;;;;;;1999.90;999.90;;;21.10;99.90;;;;;;5050906;28;20025;-68
2023/04/19 09:06:56;;;;;;;1999.90;999.90;;;21.00;99.90;;;;;;5060559;28;20486;-68
2023/04/19 09:09:26;;;;;;;1999.90;999.90;;;21.00;99.90;;;;;;5056960;28;20488;-68
2023/04/19 09:11:53;;;;;;;1999.90;999.90;;;20.90;99.90;;;;;;5057619;28;20029;-69
2023/04/19 09:14:22;;;;;;;1999.90;999.90;;;20.90;99.90;;;;;;5054282;28;20107;-68
2023/04/19 09:16:51;;;;;;;1999.90;999.90;;;20.80;99.90;;;;;;5061185;28;20037;-69
2023/04/19 09:19:18;;;;;;;1999.90;999.90;;;20.80;99.90;;;;;;5042405;28;20767;-69
2023/04/19 09:21:50;;;;;;;1999.90;999.90;;;20.70;99.90;;;;;;5059043;28;20443;-69
2023/04/19 09:24:17;;;;;;;1999.90;999.90;;;20.70;99.90;;;;;;5053258;28;20036;-69
2023/04/19 09:26:54;;;;;;;1999.90;999.90;;;20.70;99.90;;;;;;5047768;28;20535;-69
2023/04/19 09:29:22;;;;;;;1999.90;999.90;;;20.70;99.90;;;;;;5052354;28;20039;-68
2023/04/19 09:31:59;;;;;;;1999.90;999.90;;;20.70;99.90;;;;;;5057198;28;20025;-68
2023/04/19 09:34:29;;;;;;;1999.90;999.90;;;20.70;99.90;;;;;;5048084;28;20095;-70
2023/04/19 09:36:57;;;;;;;1999.90;999.90;;;20.70;99.90;;;;;;5058316;28;20025;-68
2023/04/19 09:39:35;;;;;;;1999.90;999.90;;;20.70;99.90;;;;;;5053871;28;20079;-69
2023/04/19 09:42:02;;;;;;;1999.90;999.90;;;20.70;99.90;;;;;;5049251;28;20061;-69
2023/04/19 09:44:32;;;;;;;1999.90;999.90;;;20.70;99.90;;;;;;5051354;28;20364;-70
2023/04/19 09:46:59;;;;;;;1999.90;999.90;;;20.70;99.90;;;;;;5055906;28;20025;-68
2023/04/19 09:49:26;;;;;;;1999.90;999.90;;;20.70;99.90;;;;;;5051069;28;20028;-69
2023/04/19 09:51:55;;;;;;;1999.90;999.90;;;20.60;99.90;;;;;;5043739;28;20048;-69
2023/04/19 09:54:28;;;;;;;1999.90;999.90;;;20.60;99.90;;;;;;5046501;28;20190;-69
2023/04/19 09:56:56;;;;;;;1999.90;999.90;;;20.50;99.90;;;;;;5053844;28;20032;-68
2023/04/19 09:59:23;;;;;;;1999.90;999.90;;;20.60;99.90;;;;;;5049385;28;20104;-68
2023/04/19 10:01:55;;;;;;;1999.90;999.90;;;20.50;99.90;;;;;;5056952;28;20452;-68
2023/04/19 10:04:23;;;;;;;1999.90;999.90;;;20.50;99.90;;;;;;5041107;28;20047;-70
2023/04/19 10:06:54;;;;;;;1999.90;999.90;;;20.40;99.90;;;;;;5051194;28;20032;-70
2023/04/19 10:09:22;;;;;;;1999.90;999.90;;;20.40;99.90;;;;;;5042464;28;20951;-68
2023/04/19 10:11:55;;;;;;;1999.90;999.90;;;20.30;99.90;;;;;;5047928;28;20685;-68
2023/04/19 10:14:24;;;;;;;1999.90;999.90;;;20.30;99.90;;;;;;5045197;28;20114;-68
2023/04/19 10:16:52;;;;;;;1999.90;999.90;;;20.20;99.90;;;;;;5050035;28;20396;-70
2023/04/19 10:19:22;;;;;;;1999.90;999.90;;;20.10;99.90;;;;;;5042591;28;20043;-71
2023/04/19 10:21:50;;;;;;;1999.90;999.90;;;20.10;99.90;;;;;;5041033;28;20049;-70
2023/04/19 10:24:20;;;;;;;1999.90;999.90;;;20.00;99.90;;;;;;5043620;28;20033;-69
2023/04/19 10:27:06;;;;;;;1999.90;999.90;;;19.90;99.90;;;;;;5047290;28;20043;-70
2023/04/19 10:29:52;;;;;;;1999.90;999.90;;;19.80;99.90;;;;;;5041591;28;20025;-70
2023/04/19 10:32:19;;;;;;;;;;;19.80;99.90;;;;;;5036475;28;20545;-68
2023/04/19 10:34:46;;;;;;;1999.90;999.90;;;19.80;99.90;;;;;;5046024;28;19917;-69
2023/04/19 10:37:17;;;;;;;1999.90;999.90;;;19.80;99.90;;;;;;5043454;28;20456;-69
2023/04/19 10:39:45;;;;;;;1999.90;999.90;;;19.80;99.90;;;;;;5046260;28;20034;-68
2023/04/19 10:42:12;;;;;;;1999.90;999.90;;;19.80;99.90;;;;;;5047851;28;20029;-69
2023/04/19 10:44:40;;;;;;;1999.90;999.90;;;19.90;99.90;;;;;;5046732;28;20111;-69
2023/04/19 10:47:07;;;;;;;1999.90;999.90;;;19.90;99.90;;;;;;5062041;28;20615;-69
2023/04/19 10:49:55;;;;;;;1999.90;999.90;;;20.00;99.90;;;;;;5047939;28;20025;-69
2023/04/19 10:52:28;;;;;;;1999.90;999.90;;;20.00;99.90;;;;;;5050646;28;20033;-69
2023/04/19 10:54:56;;;;;;;1999.90;999.90;;;20.00;99.90;;;;;;5052882;28;20051;-68
2023/04/19 10:57:24;;;;;;;1999.90;999.90;;;20.00;99.90;;;;;;5045346;28;20102;-69
2023/04/19 11:00:21;;;;;;;1999.90;999.90;;;20.00;99.90;;;;;;5052656;28;20045;-69
2023/04/19 11:02:48;;;;;;;1999.90;999.90;;;20.00;99.90;;;;;;5050786;28;20120;-69
2023/04/19 11:05:15;;;;;;;1999.90;999.90;;;19.90;99.90;;;;;;5051731;28;20684;-69
2023/04/19 11:07:43;;;;;;;1999.90;999.90;;;19.90;99.90;;;;;;5051216;28;20038;-69
2023/04/19 11:10:10;;;;;;;1999.90;999.90;;;19.90;99.90;;;;;;5054713;28;20041;-69
2023/04/19 11:12:42;;;;;;;1999.90;999.90;;;19.90;99.90;;;;;;5047367;28;20026;-68
2023/04/19 11:15:10;;;;;;;1999.90;999.90;;;19.90;99.90;;;;;;5053646;28;20049;-69
2023/04/19 11:17:38;;;;;;;1999.90;999.90;;;19.90;99.90;;;;;;5050313;28;20044;-69
2023/04/19 11:20:10;;;;;;;1999.90;999.90;;;20.00;99.90;;;;;;5057098;28;20082;-69
2023/04/19 11:22:38;;;;;;;1999.90;999.90;;;20.00;99.90;;;;;;5051551;28;20032;-69
2023/04/19 11:25:11;;;;;;;1999.90;999.90;;;20.00;99.90;;;;;;5054577;28;20029;-69
2023/04/19 11:27:40;;;;;;;1999.90;999.90;;;20.00;99.90;;;;;;5052876;28;20037;-69
2023/04/19 11:30:12;;;;;;;1999.90;999.90;;;20.00;99.90;;;;;;5048401;28;20075;-69
2023/04/19 11:32:52;;;;;;;1999.90;999.90;;;20.00;99.90;;;;;;5041836;28;20021;-70
2023/04/19 11:35:21;;;;;;;1999.90;999.90;;;20.00;99.90;;;;;;5055429;28;20491;-70
2023/04/19 11:37:48;;;;;;;1999.90;999.90;;;20.10;99.90;;;;;;5049246;28;20040;-70
2023/04/19 11:40:17;;;;;;;1999.90;999.90;;;20.10;99.90;;;;;;5055406;28;20036;-69
2023/04/19 11:42:45;;;;;;;1999.90;999.90;;;20.10;99.90;;;;;;5043870;28;20039;-70
2023/04/19 11:45:23;;;;;;;1999.90;999.90;;;20.10;99.90;;;;;;5047982;28;20072;-70
2023/04/19 11:47:51;;;;;;;1999.90;999.90;;;20.10;99.90;;;;;;5047286;28;20105;-69
2023/04/19 11:50:42;;;;;;;1999.90;999.90;;;20.10;99.90;;;;;;5053016;28;20377;-69
2023/04/19 11:53:23;;;;;;;1999.90;999.90;;;20.10;99.90;;;;;;5043280;28;20025;-70
2023/04/19 11:55:56;;;;;;;1999.90;999.90;;;20.00;99.90;;;;;;5043525;28;20043;-70
2023/04/19 11:58:24;;;;;;;1999.90;999.90;;;20.10;99.90;;;;;;5050641;28;20062;-70
2023/04/19 12:00:52;;;;;;;1999.90;999.90;;;20.00;99.90;;;;;;5052036;28;20454;-70
2023/04/19 12:03:23;;;;;;;1999.90;999.90;;;20.00;99.90;;;;;;5047223;28;22376;-70
2023/04/19 12:05:58;;;;;;;1999.90;999.90;;;20.00;99.90;;;;;;5042305;28;20021;-69
2023/04/19 12:08:36;;;;;;;1999.90;999.90;;;20.00;99.90;;;;;;5043225;28;20124;-69